createdAt,value
2023-01-19T00:00:51.517Z,1.00
2023-01-19T00:03:18.546Z,1.10
2023-01-19T00:05:45.712Z,1.10
2023-01-19T00:08:17.056Z,1.10
2023-01-19T00:10:46.216Z,1.00
2023-01-19T00:13:13.912Z,1.10
2023-01-19T00:15:40.870Z,1.00
2023-01-19T00:18:09.685Z,1.00
2023-01-19T00:20:37.927Z,1.00
2023-01-19T00:23:05.175Z,1.00
2023-01-19T00:25:31.953Z,1.10
2023-01-19T00:28:01.440Z,1.10
2023-01-19T00:30:28.821Z,1.10
2023-01-19T00:32:55.989Z,1.00
2023-01-19T00:35:22.752Z,1.00
2023-01-19T00:37:49.460Z,1.00
2023-01-19T00:40:16.609Z,1.00
2023-01-19T00:42:48.358Z,1.00
2023-01-19T00:45:23.554Z,1.00
2023-01-19T00:47:54.756Z,1.00
2023-01-19T00:50:21.560Z,1.00
2023-01-19T00:52:48.231Z,1.10
2023-01-19T00:55:16.517Z,1.10
2023-01-19T00:57:43.400Z,1.00
2023-01-19T01:00:12.908Z,1.00
2023-01-19T01:02:41.168Z,1.10
2023-01-19T01:05:09.096Z,1.10
2023-01-19T01:07:40.878Z,1.10
2023-01-19T01:10:09.884Z,1.00
2023-01-19T01:12:37.502Z,1.10
2023-01-19T01:15:07.008Z,1.10
2023-01-19T01:17:34.127Z,1.20
2023-01-19T01:20:00.902Z,1.20
2023-01-19T01:22:27.740Z,1.30
2023-01-19T01:24:54.584Z,1.30
2023-01-19T01:27:21.351Z,1.30
2023-01-19T01:29:48.582Z,1.30
2023-01-19T01:32:16.766Z,1.30
2023-01-19T01:34:43.909Z,1.30
2023-01-19T01:37:10.699Z,1.30
2023-01-19T01:39:37.720Z,1.30
2023-01-19T01:42:17.851Z,1.40
2023-01-19T01:44:51.484Z,1.30
2023-01-19T01:47:23.994Z,1.40
2023-01-19T01:49:57.197Z,1.30
2023-01-19T01:52:26.988Z,1.30
2023-01-19T01:54:53.878Z,1.30
2023-01-19T01:57:20.809Z,1.30
2023-01-19T01:59:49.571Z,1.40
2023-01-19T02:02:40.372Z,1.40
2023-01-19T02:05:11.538Z,1.40
2023-01-19T02:08:12.516Z,1.40
2023-01-19T02:10:59.549Z,1.30
2023-01-19T02:13:28.569Z,1.30
2023-01-19T02:16:01.072Z,1.20
2023-01-19T02:18:29.812Z,1.20
2023-01-19T02:21:02.668Z,1.20
2023-01-19T02:23:43.239Z,1.20
2023-01-19T02:26:13.686Z,1.20
2023-01-19T02:28:46.419Z,1.20
2023-01-19T02:31:15.120Z,1.10
2023-01-19T02:33:42.158Z,1.10
2023-01-19T02:36:12.003Z,1.10
2023-01-19T02:38:40.322Z,1.10
2023-01-19T02:41:08.928Z,1.10
2023-01-19T02:43:37.316Z,1.10
2023-01-19T02:46:04.277Z,1.10
2023-01-19T02:48:31.282Z,1.10
2023-01-19T02:51:04.472Z,1.10
2023-01-19T02:54:05.845Z,1.10
2023-01-19T02:56:38.251Z,1.10
2023-01-19T02:59:25.399Z,1.10
2023-01-19T03:01:58.303Z,1.00
2023-01-19T03:04:31.562Z,1.00
2023-01-19T03:07:10.191Z,1.00
2023-01-19T03:09:49.453Z,1.00
2023-01-19T03:12:40.269Z,1.00
2023-01-19T03:15:20.947Z,0.90
2023-01-19T03:17:50.654Z,0.90
2023-01-19T03:20:22.670Z,0.80
2023-01-19T03:22:55.396Z,0.90
2023-01-19T03:25:24.703Z,0.90
2023-01-19T03:27:54.737Z,0.80
2023-01-19T03:30:27.024Z,0.80
2023-01-19T03:33:00.460Z,0.80
2023-01-19T03:35:33.139Z,0.70
2023-01-19T03:38:04.006Z,0.70
2023-01-19T03:40:32.651Z,0.60
2023-01-19T03:43:01.360Z,0.60
2023-01-19T03:45:28.539Z,0.60
2023-01-19T03:47:55.510Z,0.60
2023-01-19T03:50:27.371Z,0.60
2023-01-19T03:53:21.871Z,0.50
2023-01-19T03:55:51.373Z,0.50
2023-01-19T03:58:18.088Z,0.40
2023-01-19T04:00:44.839Z,0.30
2023-01-19T04:03:14.671Z,0.30
2023-01-19T04:05:41.941Z,0.30
2023-01-19T04:08:09.953Z,0.30
2023-01-19T04:10:36.919Z,0.20
2023-01-19T04:13:04.693Z,0.20
2023-01-19T04:15:32.469Z,0.20
2023-01-19T04:18:00.259Z,0.20
2023-01-19T04:20:28.274Z,0.20
2023-01-19T04:22:59.952Z,0.10
2023-01-19T04:25:27.788Z,0.10
2023-01-19T04:27:55.233Z,0.10
2023-01-19T04:30:22.695Z,0.10
2023-01-19T04:32:49.853Z,0.10
2023-01-19T04:35:17.062Z,0.10
2023-01-19T04:37:45.024Z,0.10
2023-01-19T04:40:12.391Z,0.00
2023-01-19T04:42:42.803Z,0.00
2023-01-19T04:45:10.046Z,0.00
2023-01-19T04:47:37.221Z,0.00
2023-01-19T04:50:05.712Z,0.00
2023-01-19T04:52:36.333Z,0.00
2023-01-19T04:55:06.565Z,0.00
2023-01-19T04:57:33.305Z,0.00
2023-01-19T05:00:00.156Z,0.10
2023-01-19T05:02:27.359Z,0.10
2023-01-19T05:04:54.760Z,0.00
2023-01-19T05:07:21.437Z,0.00
2023-01-19T05:09:48.231Z,0.00
2023-01-19T05:12:15.067Z,-0.10
2023-01-19T05:14:41.858Z,0.00
2023-01-19T05:17:08.783Z,-0.10
2023-01-19T05:19:35.562Z,-0.10
2023-01-19T05:22:03.821Z,-0.20
2023-01-19T05:24:30.661Z,-0.20
2023-01-19T05:26:57.850Z,-0.20
2023-01-19T05:29:24.676Z,-0.20
2023-01-19T05:31:51.548Z,-0.30
2023-01-19T05:34:18.686Z,-0.30
2023-01-19T05:36:45.397Z,-0.30
2023-01-19T05:39:12.210Z,-0.30
2023-01-19T05:41:38.936Z,-0.40
2023-01-19T05:44:05.728Z,-0.30
2023-01-19T05:46:33.989Z,-0.40
2023-01-19T05:49:04.165Z,-0.30
2023-01-19T05:51:35.203Z,-0.30
2023-01-19T05:54:02.324Z,-0.40
2023-01-19T05:56:29.364Z,-0.30
2023-01-19T05:58:56.061Z,-0.40
2023-01-19T06:01:23.037Z,-0.40
2023-01-19T06:03:49.788Z,-0.40
2023-01-19T06:06:17.217Z,-0.40
2023-01-19T06:08:44.775Z,-0.50
2023-01-19T06:11:12.465Z,-0.50
2023-01-19T06:13:42.800Z,-0.40
2023-01-19T06:16:09.937Z,-0.50
2023-01-19T06:18:36.662Z,-0.40
2023-01-19T06:21:05.641Z,-0.50
2023-01-19T06:23:33.942Z,-0.50
2023-01-19T06:26:01.093Z,-0.50
2023-01-19T06:28:27.905Z,-0.50
2023-01-19T06:30:56.185Z,-0.50
2023-01-19T06:33:24.982Z,-0.50
2023-01-19T06:35:52.238Z,-0.50
2023-01-19T06:38:19.398Z,-0.50
2023-01-19T06:40:52.639Z,-0.60
2023-01-19T06:43:20.356Z,-0.60
2023-01-19T06:45:47.497Z,-0.70
2023-01-19T06:48:14.459Z,-0.60
2023-01-19T06:50:41.569Z,-0.60
2023-01-19T06:53:08.403Z,-0.70
2023-01-19T06:55:36.496Z,-0.60
2023-01-19T06:58:03.427Z,-0.70
2023-01-19T07:00:30.336Z,-0.60
2023-01-19T07:02:57.094Z,-0.70
2023-01-19T07:05:24.482Z,-0.70
2023-01-19T07:07:55.499Z,-0.70
2023-01-19T07:10:23.617Z,-0.70
2023-01-19T07:12:50.766Z,-0.70
2023-01-19T07:15:19.839Z,-0.80
2023-01-19T07:17:46.640Z,-0.70
2023-01-19T07:20:14.531Z,-0.70
2023-01-19T07:22:46.540Z,-0.70
2023-01-19T07:25:14.522Z,-0.60
2023-01-19T07:27:41.303Z,-0.70
2023-01-19T07:30:09.132Z,-0.60
2023-01-19T07:32:36.067Z,-0.60
2023-01-19T07:35:03.245Z,-0.60
2023-01-19T07:37:30.090Z,-0.60
2023-01-19T07:39:56.890Z,-0.60
2023-01-19T07:42:23.596Z,-0.60
2023-01-19T07:44:50.342Z,-0.60
2023-01-19T07:47:17.348Z,-0.60
2023-01-19T07:49:44.144Z,-0.60
2023-01-19T07:52:10.967Z,-0.50
2023-01-19T07:54:38.368Z,-0.50
2023-01-19T07:57:05.123Z,-0.40
2023-01-19T07:59:32.396Z,-0.30
2023-01-19T08:01:59.773Z,-0.20
2023-01-19T08:04:28.010Z,-0.10
2023-01-19T08:06:56.039Z,0.00
2023-01-19T08:09:24.025Z,0.10
2023-01-19T08:11:50.753Z,0.10
2023-01-19T08:14:17.761Z,0.10
2023-01-19T08:16:46.135Z,0.10
2023-01-19T08:19:12.834Z,0.00
2023-01-19T08:21:39.635Z,0.00
2023-01-19T08:24:06.799Z,0.00
2023-01-19T08:26:35.380Z,0.00
2023-01-19T08:29:04.924Z,-0.10
2023-01-19T08:31:32.052Z,0.00
2023-01-19T08:33:59.243Z,0.00
2023-01-19T08:36:26.586Z,0.00
2023-01-19T08:38:53.285Z,0.10
2023-01-19T08:41:20.231Z,0.20
2023-01-19T08:43:47.158Z,0.30
2023-01-19T08:46:21.341Z,0.30
2023-01-19T08:48:48.705Z,0.40
2023-01-19T08:51:16.175Z,0.40
2023-01-19T08:53:43.393Z,0.40
2023-01-19T08:56:14.498Z,0.50
2023-01-19T08:58:43.101Z,0.60
2023-01-19T09:01:11.282Z,0.70
2023-01-19T09:03:38.112Z,0.70
2023-01-19T09:06:08.823Z,0.70
2023-01-19T09:08:35.852Z,0.80
2023-01-19T09:11:02.702Z,0.90
2023-01-19T09:13:29.519Z,1.00
2023-01-19T09:15:56.334Z,1.10
2023-01-19T09:18:24.144Z,1.10
2023-01-19T09:20:51.198Z,1.00
2023-01-19T09:23:20.423Z,1.10
2023-01-19T09:25:48.143Z,1.20
2023-01-19T09:28:17.628Z,1.20
2023-01-19T09:30:45.159Z,1.20
2023-01-19T09:33:17.268Z,1.30
2023-01-19T09:35:45.997Z,1.50
2023-01-19T09:38:15.284Z,1.50
2023-01-19T09:41:17.573Z,1.60
2023-01-19T09:43:58.021Z,1.60
2023-01-19T09:46:36.972Z,1.70
2023-01-19T09:49:11.619Z,1.90
2023-01-19T09:51:41.575Z,1.90
2023-01-19T09:54:20.724Z,2.20
2023-01-19T09:56:51.320Z,2.40
2023-01-19T09:59:20.882Z,2.50
2023-01-19T10:02:02.858Z,2.80
2023-01-19T10:04:31.833Z,3.00
2023-01-19T10:07:10.760Z,3.10
2023-01-19T10:10:01.064Z,3.30
2023-01-19T10:12:58.285Z,3.40
2023-01-19T10:16:01.827Z,3.70
2023-01-19T10:18:35.703Z,3.90
2023-01-19T10:21:13.108Z,4.30
2023-01-19T10:23:57.310Z,4.60
2023-01-19T10:26:39.358Z,4.70
2023-01-19T10:29:26.074Z,4.80
2023-01-19T10:32:04.237Z,5.00
2023-01-19T10:34:30.999Z,4.90
2023-01-19T10:37:04.753Z,4.90
2023-01-19T10:39:31.830Z,5.10
2023-01-19T10:42:03.849Z,4.90
2023-01-19T10:44:36.667Z,5.10
2023-01-19T10:47:06.243Z,5.20
2023-01-19T10:49:44.748Z,5.30
2023-01-19T10:52:26.602Z,5.10
2023-01-19T10:54:53.978Z,4.90
2023-01-19T10:57:32.981Z,4.70
2023-01-19T10:59:59.940Z,4.50
2023-01-19T11:02:29.370Z,4.30
2023-01-19T11:04:59.304Z,4.10
2023-01-19T11:07:25.968Z,4.00
2023-01-19T11:10:17.505Z,4.00
2023-01-19T11:13:01.782Z,3.90
2023-01-19T11:15:44.637Z,3.90
2023-01-19T11:18:33.989Z,3.70
2023-01-19T11:21:09.806Z,3.60
2023-01-19T11:23:51.527Z,3.70
2023-01-19T11:26:32.406Z,3.70
2023-01-19T11:29:00.971Z,3.60
2023-01-19T11:31:27.819Z,3.70
2023-01-19T11:34:00.039Z,3.60
2023-01-19T11:36:32.568Z,3.40
2023-01-19T11:39:02.600Z,3.50
2023-01-19T11:41:37.187Z,3.50
2023-01-19T11:44:19.406Z,3.40
2023-01-19T11:46:50.754Z,3.50
2023-01-19T11:49:44.232Z,3.40
2023-01-19T11:52:10.898Z,3.50
2023-01-19T11:54:47.492Z,3.40
2023-01-19T11:57:17.209Z,3.40
2023-01-19T11:59:44.775Z,3.40
2023-01-19T12:02:26.269Z,3.40
2023-01-19T12:04:57.937Z,3.40
2023-01-19T12:07:30.363Z,3.50
2023-01-19T12:10:13.205Z,3.60
2023-01-19T12:12:41.200Z,3.60
2023-01-19T12:15:36.199Z,3.70
2023-01-19T12:18:04.791Z,3.70
2023-01-19T12:20:35.184Z,3.70
2023-01-19T12:23:22.527Z,3.70
2023-01-19T12:26:16.436Z,3.70
2023-01-19T12:28:48.311Z,3.70
2023-01-19T12:31:17.930Z,3.70
2023-01-19T12:33:44.843Z,3.70
2023-01-19T12:36:26.632Z,3.60
2023-01-19T12:39:04.282Z,3.40
2023-01-19T12:41:34.319Z,3.40
2023-01-19T12:44:16.001Z,3.30
2023-01-19T12:46:50.189Z,3.20
2023-01-19T12:49:38.434Z,3.10
2023-01-19T12:52:20.363Z,3.20
2023-01-19T12:55:12.772Z,3.30
2023-01-19T12:57:46.645Z,3.30
2023-01-19T13:00:22.393Z,3.10
2023-01-19T13:02:51.568Z,3.00
2023-01-19T13:05:47.820Z,3.00
2023-01-19T13:08:16.167Z,3.00
2023-01-19T13:11:09.494Z,3.00
2023-01-19T13:14:05.373Z,3.10
2023-01-19T13:16:32.081Z,3.10
2023-01-19T13:19:06.236Z,3.10
2023-01-19T13:21:34.710Z,3.10
2023-01-19T13:24:05.655Z,3.10
2023-01-19T13:26:38.573Z,3.20
2023-01-19T13:29:05.252Z,3.30
2023-01-19T13:31:40.233Z,3.40
2023-01-19T13:34:16.931Z,3.40
2023-01-19T13:36:45.955Z,3.30
2023-01-19T13:39:23.641Z,3.20
2023-01-19T13:41:54.764Z,3.20
2023-01-19T13:44:29.115Z,3.20
2023-01-19T13:46:57.578Z,3.30
2023-01-19T13:49:36.322Z,3.30
2023-01-19T13:52:14.159Z,3.30
2023-01-19T13:54:53.136Z,3.20
2023-01-19T13:57:30.997Z,3.20
2023-01-19T14:00:01.640Z,3.20
2023-01-19T14:02:28.418Z,3.20
2023-01-19T14:04:57.222Z,3.10
2023-01-19T14:07:26.563Z,3.10
2023-01-19T14:10:09.469Z,3.10
2023-01-19T14:12:43.534Z,3.10
2023-01-19T14:15:15.080Z,3.00
2023-01-19T14:17:42.245Z,3.10
2023-01-19T14:20:29.705Z,3.10
2023-01-19T14:22:56.496Z,3.20
2023-01-19T14:25:37.921Z,3.10
2023-01-19T14:28:28.542Z,3.00
2023-01-19T14:30:57.388Z,3.00
2023-01-19T14:33:45.375Z,3.00
2023-01-19T14:36:17.560Z,3.00
2023-01-19T14:38:46.629Z,3.00
2023-01-19T14:41:44.707Z,3.10
2023-01-19T14:44:18.767Z,3.10
2023-01-19T14:46:49.020Z,3.10
2023-01-19T14:49:46.813Z,3.00
2023-01-19T14:52:24.633Z,2.90
2023-01-19T14:54:54.247Z,2.70
2023-01-19T14:57:23.112Z,2.60
2023-01-19T14:59:50.418Z,2.60
2023-01-19T15:02:20.585Z,2.60
2023-01-19T15:04:48.286Z,2.60
2023-01-19T15:07:22.563Z,2.60
2023-01-19T15:09:50.072Z,2.50
2023-01-19T15:12:18.506Z,2.40
2023-01-19T15:14:45.915Z,2.40
2023-01-19T15:17:25.436Z,2.40
2023-01-19T15:19:56.125Z,2.40
2023-01-19T15:22:26.826Z,2.40
2023-01-19T15:24:57.566Z,2.40
2023-01-19T15:27:24.578Z,2.30
2023-01-19T15:29:51.343Z,2.30
2023-01-19T15:32:18.171Z,2.10
2023-01-19T15:34:47.725Z,2.00
2023-01-19T15:37:14.430Z,2.00
2023-01-19T15:39:41.227Z,2.00
2023-01-19T15:42:16.401Z,2.00
2023-01-19T15:44:45.022Z,2.00
2023-01-19T15:47:11.804Z,2.00
2023-01-19T15:49:38.586Z,2.00
2023-01-19T15:52:05.318Z,2.00
2023-01-19T15:54:32.026Z,2.00
2023-01-19T15:56:58.764Z,2.00
2023-01-19T15:59:25.846Z,2.00
2023-01-19T16:01:52.606Z,1.90
2023-01-19T16:04:19.619Z,1.90
2023-01-19T16:06:46.362Z,2.00
2023-01-19T16:09:18.397Z,1.90
2023-01-19T16:11:45.161Z,1.80
2023-01-19T16:14:12.278Z,1.80
2023-01-19T16:16:39.027Z,1.70
2023-01-19T16:19:05.811Z,1.70
2023-01-19T16:21:32.547Z,1.60
2023-01-19T16:23:59.270Z,1.60
2023-01-19T16:26:32.598Z,1.60
2023-01-19T16:29:01.770Z,1.60
2023-01-19T16:31:29.387Z,1.60
2023-01-19T16:33:56.259Z,1.60
2023-01-19T16:36:24.459Z,1.50
2023-01-19T16:38:51.445Z,1.60
2023-01-19T16:41:18.319Z,1.50
2023-01-19T16:43:49.509Z,1.60
2023-01-19T16:46:24.889Z,1.50
2023-01-19T16:48:52.275Z,1.50
2023-01-19T16:51:19.581Z,1.60
2023-01-19T16:53:48.461Z,1.60
2023-01-19T16:56:15.405Z,1.60
2023-01-19T16:58:42.488Z,1.60
2023-01-19T17:01:11.495Z,1.70
2023-01-19T17:03:38.630Z,1.70
2023-01-19T17:06:10.528Z,1.70
2023-01-19T17:08:37.497Z,1.70
2023-01-19T17:11:20.893Z,1.70
2023-01-19T17:13:57.065Z,1.70
2023-01-19T17:16:25.335Z,1.70
2023-01-19T17:18:52.265Z,1.70
2023-01-19T17:21:20.078Z,1.70
2023-01-19T17:23:48.922Z,1.80
2023-01-19T17:26:16.940Z,1.80
2023-01-19T17:28:44.348Z,1.70
2023-01-19T17:31:19.510Z,1.70
2023-01-19T17:33:48.801Z,1.70
2023-01-19T17:36:17.840Z,1.70
2023-01-19T17:38:44.542Z,1.60
2023-01-19T17:41:15.172Z,1.60
2023-01-19T17:43:41.939Z,1.60
2023-01-19T17:46:09.304Z,1.60
2023-01-19T17:48:36.189Z,1.60
2023-01-19T17:51:05.657Z,1.60
2023-01-19T17:53:33.289Z,1.60
2023-01-19T17:56:16.584Z,1.60
2023-01-19T17:58:44.339Z,1.50
2023-01-19T18:01:17.496Z,1.60
2023-01-19T18:03:44.426Z,1.60
2023-01-19T18:06:11.707Z,1.60
2023-01-19T18:08:44.380Z,1.60
2023-01-19T18:11:11.556Z,1.40
2023-01-19T18:13:39.346Z,1.40
2023-01-19T18:16:09.450Z,1.30
2023-01-19T18:18:38.106Z,1.40
2023-01-19T18:21:07.670Z,1.40
2023-01-19T18:23:34.866Z,1.40
2023-01-19T18:26:09.944Z,1.50
2023-01-19T18:28:37.324Z,1.50
2023-01-19T18:31:08.915Z,1.50
2023-01-19T18:33:36.522Z,1.50
2023-01-19T18:36:04.199Z,1.40
2023-01-19T18:38:31.429Z,1.50
2023-01-19T18:41:07.252Z,1.40
2023-01-19T18:43:34.348Z,1.40
2023-01-19T18:46:01.129Z,1.30
2023-01-19T18:48:31.358Z,1.20
2023-01-19T18:51:03.190Z,1.10
2023-01-19T18:53:31.669Z,1.10
2023-01-19T18:56:01.876Z,1.10
2023-01-19T18:58:29.791Z,1.00
2023-01-19T19:01:00.433Z,1.00
2023-01-19T19:03:27.726Z,1.10
2023-01-19T19:05:55.466Z,1.10
2023-01-19T19:08:26.389Z,1.10
2023-01-19T19:10:53.179Z,1.10
2023-01-19T19:13:21.846Z,1.10
2023-01-19T19:15:48.689Z,1.10
2023-01-19T19:18:16.281Z,1.10
2023-01-19T19:20:43.498Z,1.10
2023-01-19T19:23:13.512Z,1.10
2023-01-19T19:25:40.343Z,1.20
2023-01-19T19:28:07.245Z,1.10
2023-01-19T19:30:35.754Z,1.10
2023-01-19T19:33:03.200Z,1.00
2023-01-19T19:35:30.010Z,1.00
2023-01-19T19:37:57.787Z,1.10
2023-01-19T19:40:28.217Z,1.10
2023-01-19T19:42:57.572Z,1.00
2023-01-19T19:45:25.512Z,1.00
2023-01-19T19:47:52.311Z,1.00
2023-01-19T19:50:19.089Z,0.90
2023-01-19T19:52:45.884Z,0.90
2023-01-19T19:55:12.779Z,0.90
2023-01-19T19:57:39.623Z,0.90
2023-01-19T20:00:07.749Z,0.90
2023-01-19T20:02:34.533Z,0.90
2023-01-19T20:05:01.344Z,0.90
2023-01-19T20:07:28.120Z,0.90
2023-01-19T20:09:55.167Z,0.90
2023-01-19T20:12:22.137Z,0.80
2023-01-19T20:14:48.894Z,0.80
2023-01-19T20:17:15.627Z,0.80
2023-01-19T20:19:43.803Z,0.70
2023-01-19T20:22:10.509Z,0.80
2023-01-19T20:24:37.286Z,1.00
2023-01-19T20:27:04.327Z,0.90
2023-01-19T20:29:31.108Z,0.80
2023-01-19T20:31:58.179Z,0.80
2023-01-19T20:34:28.228Z,0.80
2023-01-19T20:36:55.430Z,0.80
2023-01-19T20:39:23.582Z,0.70
2023-01-19T20:41:51.439Z,0.70
2023-01-19T20:44:27.294Z,0.70
2023-01-19T20:46:54.982Z,0.70
2023-01-19T20:49:21.974Z,0.70
2023-01-19T20:51:50.014Z,0.60
2023-01-19T20:54:18.844Z,0.60
2023-01-19T20:56:45.703Z,0.70
2023-01-19T20:59:13.465Z,0.60
2023-01-19T21:01:41.593Z,0.50
2023-01-19T21:04:09.479Z,0.50
2023-01-19T21:06:36.838Z,0.50
2023-01-19T21:09:04.934Z,0.50
2023-01-19T21:11:31.688Z,0.50
2023-01-19T21:13:58.457Z,0.50
2023-01-19T21:16:27.944Z,0.60
2023-01-19T21:18:55.147Z,0.70
2023-01-19T21:21:30.229Z,0.80
2023-01-19T21:24:01.287Z,0.80
2023-01-19T21:26:33.350Z,0.80
2023-01-19T21:29:01.561Z,0.80
2023-01-19T21:31:28.714Z,0.90
2023-01-19T21:33:56.922Z,0.90
2023-01-19T21:36:24.635Z,0.90
2023-01-19T21:38:52.415Z,1.00
2023-01-19T21:41:19.729Z,0.90
2023-01-19T21:43:47.055Z,0.80
2023-01-19T21:46:17.991Z,0.90
2023-01-19T21:48:45.870Z,1.00
2023-01-19T21:51:13.253Z,1.00
2023-01-19T21:53:40.567Z,0.90
2023-01-19T21:56:09.463Z,1.00
2023-01-19T21:58:36.881Z,1.00
2023-01-19T22:01:15.587Z,0.90
2023-01-19T22:03:43.765Z,1.00
2023-01-19T22:06:13.407Z,0.90
2023-01-19T22:08:58.409Z,0.90
2023-01-19T22:11:25.483Z,1.00
2023-01-19T22:13:52.644Z,1.00
2023-01-19T22:16:21.819Z,1.10
2023-01-19T22:18:56.231Z,1.10
2023-01-19T22:21:25.019Z,1.10
2023-01-19T22:23:54.555Z,1.00
2023-01-19T22:26:22.029Z,1.00
2023-01-19T22:28:52.396Z,1.10
2023-01-19T22:31:19.552Z,1.20
2023-01-19T22:33:46.650Z,1.20
2023-01-19T22:36:16.189Z,1.20
2023-01-19T22:38:44.389Z,1.20
2023-01-19T22:41:13.036Z,1.30
2023-01-19T22:43:39.855Z,1.40
2023-01-19T22:46:08.741Z,1.50
2023-01-19T22:48:36.253Z,1.50
2023-01-19T22:51:03.421Z,1.30
2023-01-19T22:53:33.393Z,1.40
2023-01-19T22:56:00.231Z,1.40
2023-01-19T22:58:26.979Z,1.30
2023-01-19T23:00:53.814Z,1.30
2023-01-19T23:03:20.586Z,1.40
2023-01-19T23:05:47.356Z,1.40
2023-01-19T23:08:14.139Z,1.40
2023-01-19T23:10:40.962Z,1.40
2023-01-19T23:13:07.720Z,1.50
2023-01-19T23:15:34.955Z,1.50
2023-01-19T23:18:02.022Z,1.40
2023-01-19T23:20:28.832Z,1.40
2023-01-19T23:22:55.653Z,1.40
2023-01-19T23:25:22.442Z,1.40
2023-01-19T23:27:49.193Z,1.40
2023-01-19T23:30:16.252Z,1.40
2023-01-19T23:32:47.374Z,1.40
2023-01-19T23:35:14.731Z,1.40
2023-01-19T23:37:41.881Z,1.50
2023-01-19T23:43:57.579Z,1.50
2023-01-19T23:46:24.642Z,1.60
2023-01-19T23:48:51.723Z,1.50
2023-01-19T23:51:24.085Z,1.60
2023-01-19T23:53:51.342Z,1.50
2023-01-19T23:56:21.094Z,1.60
2023-01-19T23:58:52.678Z,1.50
